createdAt,value
2022-12-18T00:02:15.846Z,-3.20
2022-12-18T00:04:42.831Z,-3.20
2022-12-18T00:07:09.651Z,-3.20
2022-12-18T00:09:39.337Z,-3.30
2022-12-18T00:14:43.100Z,-3.30
2022-12-18T00:17:09.973Z,-3.40
2022-12-18T00:19:36.766Z,-3.40
2022-12-18T00:22:03.562Z,-3.40
2022-12-18T00:24:30.321Z,-3.40
2022-12-18T00:26:57.115Z,-3.30
2022-12-18T00:29:26.031Z,-3.30
2022-12-18T00:31:52.877Z,-3.40
2022-12-18T00:34:19.697Z,-3.40
2022-12-18T00:36:48.410Z,-3.40
2022-12-18T00:39:15.077Z,-3.30
2022-12-18T00:42:03.469Z,-3.40
2022-12-18T00:44:31.590Z,-3.40
2022-12-18T00:46:58.297Z,-3.40
2022-12-18T00:49:25.194Z,-3.40
2022-12-18T00:51:51.924Z,-3.40
2022-12-18T00:54:18.952Z,-3.50
2022-12-18T00:56:49.225Z,-3.50
2022-12-18T00:59:17.211Z,-3.50
2022-12-18T01:01:47.536Z,-3.50
2022-12-18T01:04:14.542Z,-3.50
2022-12-18T01:06:41.373Z,-3.40
2022-12-18T01:09:08.143Z,-3.40
2022-12-18T01:11:37.030Z,-3.40
2022-12-18T01:14:04.624Z,-3.40
2022-12-18T01:16:33.582Z,-3.40
2022-12-18T01:19:00.341Z,-3.40
2022-12-18T01:21:30.167Z,-3.40
2022-12-18T01:23:57.495Z,-3.40
2022-12-18T01:26:24.753Z,-3.40
2022-12-18T01:28:54.697Z,-3.50
2022-12-18T01:31:23.811Z,-3.50
2022-12-18T01:33:51.303Z,-3.50
2022-12-18T01:36:20.334Z,-3.50
2022-12-18T01:38:47.458Z,-3.50
2022-12-18T01:41:14.626Z,-3.50
2022-12-18T01:43:46.352Z,-3.50
2022-12-18T01:46:13.356Z,-3.50
2022-12-18T01:48:40.293Z,-3.60
2022-12-18T01:51:08.736Z,-3.60
2022-12-18T01:53:35.895Z,-3.50
2022-12-18T01:56:02.865Z,-3.60
2022-12-18T01:58:48.353Z,-3.50
2022-12-18T02:01:15.534Z,-3.60
2022-12-18T02:03:43.757Z,-3.50
2022-12-18T02:06:17.248Z,-3.60
2022-12-18T02:08:52.441Z,-3.50
2022-12-18T02:11:34.923Z,-3.50
2022-12-18T02:14:27.276Z,-3.50
2022-12-18T02:17:00.759Z,-3.50
2022-12-18T02:19:46.498Z,-3.60
2022-12-18T02:22:22.469Z,-3.60
2022-12-18T02:24:55.798Z,-3.60
2022-12-18T02:27:22.828Z,-3.60
2022-12-18T02:29:58.645Z,-3.50
2022-12-18T02:32:30.589Z,-3.60
2022-12-18T02:34:59.568Z,-3.60
2022-12-18T02:37:29.029Z,-3.50
2022-12-18T02:39:57.150Z,-3.50
2022-12-18T02:42:24.671Z,-3.50
2022-12-18T02:44:52.269Z,-3.60
2022-12-18T02:47:27.867Z,-3.60
2022-12-18T02:49:59.103Z,-3.70
2022-12-18T02:52:42.504Z,-3.70
2022-12-18T02:55:23.539Z,-3.60
2022-12-18T02:57:57.855Z,-3.60
2022-12-18T03:00:38.207Z,-3.60
2022-12-18T03:03:15.258Z,-3.60
2022-12-18T03:05:44.268Z,-3.50
2022-12-18T03:08:41.550Z,-3.60
2022-12-18T03:11:10.122Z,-3.60
2022-12-18T03:13:42.751Z,-3.60
2022-12-18T03:16:15.188Z,-3.70
2022-12-18T03:18:48.607Z,-3.70
2022-12-18T03:21:16.647Z,-3.70
2022-12-18T03:23:49.021Z,-3.70
2022-12-18T03:26:17.895Z,-3.80
2022-12-18T03:28:46.826Z,-3.80
2022-12-18T03:31:14.837Z,-3.90
2022-12-18T03:33:41.978Z,-3.80
2022-12-18T03:36:12.525Z,-3.90
2022-12-18T03:38:39.312Z,-3.90
2022-12-18T03:41:23.327Z,-4.00
2022-12-18T03:44:42.923Z,-4.00
2022-12-18T03:47:10.489Z,-4.00
2022-12-18T03:49:37.578Z,-4.00
2022-12-18T03:52:11.342Z,-4.00
2022-12-18T03:54:42.649Z,-3.90
2022-12-18T03:57:26.047Z,-3.90
2022-12-18T04:00:06.364Z,-3.90
2022-12-18T04:02:43.942Z,-3.90
2022-12-18T04:05:12.085Z,-3.90
2022-12-18T04:07:41.952Z,-3.90
2022-12-18T04:10:11.485Z,-4.00
2022-12-18T04:12:41.029Z,-3.90
2022-12-18T04:15:12.860Z,-3.80
2022-12-18T04:17:43.200Z,-3.90
2022-12-18T04:20:10.283Z,-4.00
2022-12-18T04:22:41.540Z,-4.00
2022-12-18T04:25:10.930Z,-4.00
2022-12-18T04:27:42.124Z,-4.00
2022-12-18T04:30:11.741Z,-4.00
2022-12-18T04:32:38.710Z,-4.00
2022-12-18T04:35:07.642Z,-4.00
2022-12-18T04:37:35.255Z,-4.00
2022-12-18T04:40:01.945Z,-4.00
2022-12-18T04:42:37.772Z,-4.00
2022-12-18T04:45:04.657Z,-4.00
2022-12-18T04:47:31.537Z,-4.00
2022-12-18T04:50:00.587Z,-4.10
2022-12-18T04:52:27.352Z,-4.10
2022-12-18T04:54:54.042Z,-4.10
2022-12-18T04:57:20.679Z,-4.20
2022-12-18T04:59:47.438Z,-4.20
2022-12-18T05:02:16.671Z,-4.10
2022-12-18T05:04:43.478Z,-4.10
2022-12-18T05:07:12.586Z,-4.10
2022-12-18T05:09:39.279Z,-4.10
2022-12-18T05:15:42.883Z,-4.10
2022-12-18T05:18:09.788Z,-4.10
2022-12-18T05:20:38.939Z,-4.00
2022-12-18T05:23:05.697Z,-4.00
2022-12-18T05:25:32.422Z,-4.00
2022-12-18T05:27:59.109Z,-4.00
2022-12-18T05:30:29.238Z,-4.00
2022-12-18T05:32:55.998Z,-4.00
2022-12-18T05:35:22.748Z,-4.10
2022-12-18T05:37:52.020Z,-4.10
2022-12-18T05:40:18.848Z,-4.10
2022-12-18T05:42:45.675Z,-4.10
2022-12-18T05:45:12.418Z,-4.10
2022-12-18T05:47:39.215Z,-4.10
2022-12-18T05:50:06.266Z,-4.10
2022-12-18T05:52:32.998Z,-4.10
2022-12-18T05:55:00.079Z,-4.20
2022-12-18T05:57:29.383Z,-4.30
2022-12-18T06:00:01.075Z,-4.30
2022-12-18T06:02:30.402Z,-4.30
2022-12-18T06:04:59.634Z,-4.30
2022-12-18T06:07:28.784Z,-4.20
2022-12-18T06:09:55.544Z,-4.20
2022-12-18T06:12:24.718Z,-4.20
2022-12-18T06:14:51.537Z,-4.10
2022-12-18T06:17:18.283Z,-4.20
2022-12-18T06:19:45.024Z,-4.20
2022-12-18T06:22:11.724Z,-4.20
2022-12-18T06:24:38.478Z,-4.20
2022-12-18T06:27:07.563Z,-4.10
2022-12-18T06:29:38.457Z,-4.10
2022-12-18T06:32:05.408Z,-4.10
2022-12-18T06:34:34.507Z,-4.10
2022-12-18T06:37:01.288Z,-4.10
2022-12-18T06:39:28.444Z,-4.10
2022-12-18T06:41:57.288Z,-4.00
2022-12-18T06:44:24.020Z,-4.00
2022-12-18T06:46:50.736Z,-4.10
2022-12-18T06:49:17.505Z,-4.20
2022-12-18T06:51:44.227Z,-4.10
2022-12-18T06:54:10.934Z,-4.10
2022-12-18T06:56:37.679Z,-4.00
2022-12-18T06:59:04.415Z,-4.00
2022-12-18T07:01:31.176Z,-4.00
2022-12-18T07:03:58.189Z,-4.00
2022-12-18T07:06:25.810Z,-4.00
2022-12-18T07:08:53.839Z,-4.10
2022-12-18T07:11:20.924Z,-4.00
2022-12-18T07:13:47.644Z,-4.00
2022-12-18T07:16:24.865Z,-4.00
2022-12-18T07:18:52.613Z,-4.00
2022-12-18T07:21:20.096Z,-3.90
2022-12-18T07:23:48.971Z,-3.90
2022-12-18T07:26:17.328Z,-4.00
2022-12-18T07:28:44.714Z,-3.90
2022-12-18T07:31:18.556Z,-3.90
2022-12-18T07:33:47.889Z,-3.90
2022-12-18T07:36:19.175Z,-3.90
2022-12-18T07:38:47.607Z,-3.90
2022-12-18T07:41:14.956Z,-3.90
2022-12-18T07:43:44.636Z,-3.90
2022-12-18T07:46:13.315Z,-3.90
2022-12-18T07:48:41.138Z,-3.90
2022-12-18T07:51:08.328Z,-3.90
2022-12-18T07:53:36.304Z,-3.90
2022-12-18T07:58:54.571Z,-3.90
2022-12-18T08:01:23.689Z,-3.90
2022-12-18T08:03:51.651Z,-3.90
2022-12-18T08:06:19.579Z,-3.90
2022-12-18T08:08:49.196Z,-3.90
2022-12-18T08:11:16.648Z,-3.80
2022-12-18T08:13:43.517Z,-3.90
2022-12-18T08:16:10.511Z,-3.80
2022-12-18T08:18:42.251Z,-3.90
2022-12-18T08:21:13.431Z,-3.90
2022-12-18T08:23:42.973Z,-3.90
2022-12-18T08:26:11.084Z,-3.80
2022-12-18T08:28:37.892Z,-3.70
2022-12-18T08:31:04.950Z,-3.70
2022-12-18T08:33:31.806Z,-3.70
2022-12-18T08:36:02.447Z,-3.70
2022-12-18T08:38:32.094Z,-3.70
2022-12-18T08:41:04.360Z,-3.70
2022-12-18T08:44:06.639Z,-3.60
2022-12-18T08:46:35.709Z,-3.60
2022-12-18T08:49:02.748Z,-3.60
2022-12-18T08:51:30.524Z,-3.60
2022-12-18T08:53:57.614Z,-3.70
2022-12-18T08:56:26.453Z,-3.70
2022-12-18T08:58:54.279Z,-3.60
2022-12-18T09:01:21.528Z,-3.60
2022-12-18T09:03:49.161Z,-3.50
2022-12-18T09:06:17.173Z,-3.50
2022-12-18T09:08:46.542Z,-3.50
2022-12-18T09:11:17.643Z,-3.40
2022-12-18T09:13:44.323Z,-3.40
2022-12-18T09:16:11.038Z,-3.40
2022-12-18T09:18:37.994Z,-3.40
2022-12-18T09:21:08.753Z,-3.40
2022-12-18T09:23:35.563Z,-3.40
2022-12-18T09:26:02.304Z,-3.30
2022-12-18T09:28:29.391Z,-3.40
2022-12-18T09:30:56.130Z,-3.30
2022-12-18T09:33:22.853Z,-3.30
2022-12-18T09:35:49.610Z,-3.40
2022-12-18T09:38:20.476Z,-3.40
2022-12-18T09:40:53.679Z,-3.20
2022-12-18T09:43:43.407Z,-3.30
2022-12-18T09:46:11.864Z,-3.30
2022-12-18T09:48:43.393Z,-3.30
2022-12-18T09:51:16.676Z,-3.30
2022-12-18T09:53:46.292Z,-3.20
2022-12-18T09:56:20.459Z,-3.20
2022-12-18T09:58:56.819Z,-3.20
2022-12-18T10:01:24.182Z,-3.20
2022-12-18T10:03:51.214Z,-3.20
2022-12-18T10:06:30.007Z,-3.20
2022-12-18T10:09:07.538Z,-3.20
2022-12-18T10:11:54.924Z,-3.10
2022-12-18T10:14:40.583Z,-3.20
2022-12-18T10:17:20.046Z,-3.20
2022-12-18T10:20:05.815Z,-3.20
2022-12-18T10:22:32.538Z,-3.20
2022-12-18T10:25:18.078Z,-3.20
2022-12-18T10:27:44.899Z,-3.20
2022-12-18T10:30:15.988Z,-3.20
2022-12-18T10:32:42.887Z,-3.10
2022-12-18T10:35:16.205Z,-3.10
2022-12-18T10:38:00.084Z,-3.10
2022-12-18T10:40:27.510Z,-3.10
2022-12-18T10:43:12.246Z,-3.00
2022-12-18T10:45:39.020Z,-3.00
2022-12-18T10:48:05.859Z,-3.10
2022-12-18T10:51:01.865Z,-3.00
2022-12-18T10:53:23.022Z,-3.00
2022-12-18T10:55:50.471Z,-2.90
2022-12-18T10:58:26.496Z,-2.90
2022-12-18T11:01:02.482Z,-2.90
2022-12-18T11:03:33.305Z,-2.80
2022-12-18T11:06:04.612Z,-2.80
2022-12-18T11:08:31.428Z,-2.80
2022-12-18T11:10:58.544Z,-2.70
2022-12-18T11:13:26.922Z,-2.70
2022-12-18T11:15:53.800Z,-2.70
2022-12-18T11:18:26.540Z,-2.60
2022-12-18T11:21:13.960Z,-2.60
2022-12-18T11:23:54.020Z,-2.60
2022-12-18T11:26:21.142Z,-2.60
2022-12-18T11:28:50.189Z,-2.60
2022-12-18T11:31:28.765Z,-2.60
2022-12-18T11:34:28.735Z,-2.60
2022-12-18T11:36:56.241Z,-2.50
2022-12-18T11:39:29.068Z,-2.40
2022-12-18T11:42:13.525Z,-2.40
2022-12-18T11:44:43.303Z,-2.40
2022-12-18T11:47:13.097Z,-2.40
2022-12-18T11:49:41.726Z,-2.40
2022-12-18T11:52:23.613Z,-2.40
2022-12-18T11:54:54.308Z,-2.40
2022-12-18T11:57:40.580Z,-2.40
2022-12-18T12:00:18.711Z,-2.50
2022-12-18T12:02:48.772Z,-2.50
2022-12-18T12:05:18.601Z,-2.50
2022-12-18T12:07:56.220Z,-2.50
2022-12-18T12:10:33.113Z,-2.50
2022-12-18T12:13:02.920Z,-2.40
2022-12-18T12:15:40.705Z,-2.40
2022-12-18T12:18:13.952Z,-2.30
2022-12-18T12:20:46.936Z,-2.40
2022-12-18T12:23:27.707Z,-2.40
2022-12-18T12:26:07.109Z,-2.40
2022-12-18T12:28:54.335Z,-2.30
2022-12-18T12:31:29.693Z,-2.30
2022-12-18T12:34:02.346Z,-2.30
2022-12-18T12:36:29.117Z,-2.30
2022-12-18T12:39:02.219Z,-2.30
2022-12-18T12:41:50.812Z,-2.30
2022-12-18T12:44:20.349Z,-2.30
2022-12-18T12:46:47.772Z,-2.20
2022-12-18T12:49:26.774Z,-2.20
2022-12-18T12:51:59.714Z,-2.20
2022-12-18T12:54:27.374Z,-2.20
2022-12-18T12:57:12.963Z,-2.20
2022-12-18T12:59:59.161Z,-2.20
2022-12-18T13:02:45.371Z,-2.20
2022-12-18T13:05:21.689Z,-2.30
2022-12-18T13:07:52.642Z,-2.30
2022-12-18T13:10:23.816Z,-2.30
2022-12-18T13:12:57.828Z,-2.20
2022-12-18T13:15:46.202Z,-2.20
2022-12-18T13:18:19.682Z,-2.20
2022-12-18T13:20:55.432Z,-2.20
2022-12-18T13:23:25.159Z,-2.10
2022-12-18T13:25:55.809Z,-2.20
2022-12-18T13:28:22.609Z,-2.20
2022-12-18T13:30:55.650Z,-2.20
2022-12-18T13:33:30.379Z,-2.20
2022-12-18T13:36:03.569Z,-2.20
2022-12-18T13:38:35.850Z,-2.30
2022-12-18T13:41:07.729Z,-2.30
2022-12-18T13:43:40.054Z,-2.30
2022-12-18T13:46:26.532Z,-2.30
2022-12-18T13:48:58.588Z,-2.30
2022-12-18T13:51:26.076Z,-2.20
2022-12-18T13:53:59.313Z,-2.20
2022-12-18T13:56:29.407Z,-2.20
2022-12-18T13:59:15.173Z,-2.20
2022-12-18T14:01:46.444Z,-2.20
2022-12-18T14:04:19.839Z,-2.30
2022-12-18T14:06:47.268Z,-2.30
2022-12-18T14:09:19.036Z,-2.20
2022-12-18T14:11:49.441Z,-2.20
2022-12-18T14:14:17.524Z,-2.20
2022-12-18T14:16:44.911Z,-2.20
2022-12-18T14:19:15.863Z,-2.20
2022-12-18T14:21:46.760Z,-2.30
2022-12-18T14:24:19.497Z,-2.30
2022-12-18T14:26:47.550Z,-2.30
2022-12-18T14:29:21.505Z,-2.30
2022-12-18T14:32:04.990Z,-2.20
2022-12-18T14:34:34.293Z,-2.20
2022-12-18T14:37:03.242Z,-2.20
2022-12-18T14:39:30.057Z,-2.20
2022-12-18T14:41:56.841Z,-2.20
2022-12-18T14:44:23.676Z,-2.30
2022-12-18T14:46:51.335Z,-2.40
2022-12-18T14:49:21.110Z,-2.40
2022-12-18T14:52:00.575Z,-2.40
2022-12-18T14:54:28.763Z,-2.40
2022-12-18T14:57:01.716Z,-2.40
2022-12-18T14:59:28.865Z,-2.40
2022-12-18T15:01:59.166Z,-2.40
2022-12-18T15:04:29.048Z,-2.40
2022-12-18T15:07:05.108Z,-2.40
2022-12-18T15:09:31.896Z,-2.40
2022-12-18T15:12:00.129Z,-2.40
2022-12-18T15:14:33.040Z,-2.40
2022-12-18T15:17:01.311Z,-2.50
2022-12-18T15:19:34.694Z,-2.40
2022-12-18T15:22:06.156Z,-2.50
2022-12-18T15:24:33.866Z,-2.60
2022-12-18T15:27:01.026Z,-2.50
2022-12-18T15:29:28.386Z,-2.50
2022-12-18T15:32:01.381Z,-2.60
2022-12-18T15:34:28.631Z,-2.70
2022-12-18T15:36:55.447Z,-2.70
2022-12-18T15:39:25.424Z,-2.60
2022-12-18T15:42:13.930Z,-2.50
2022-12-18T15:44:40.918Z,-2.60
2022-12-18T15:47:12.602Z,-2.50
2022-12-18T15:49:39.535Z,-2.50
2022-12-18T15:52:06.426Z,-2.40
2022-12-18T15:54:59.428Z,-2.40
2022-12-18T15:57:26.482Z,-2.50
2022-12-18T15:59:54.243Z,-2.40
2022-12-18T16:02:21.610Z,-2.40
2022-12-18T16:04:48.586Z,-2.40
2022-12-18T16:07:18.871Z,-2.40
2022-12-18T16:09:52.037Z,-2.40
2022-12-18T16:12:21.550Z,-2.40
2022-12-18T16:14:48.663Z,-2.50
2022-12-18T16:17:15.992Z,-2.60
2022-12-18T16:19:42.818Z,-2.60
2022-12-18T16:22:18.298Z,-2.50
2022-12-18T16:24:45.078Z,-2.60
2022-12-18T16:27:14.221Z,-2.50
2022-12-18T16:29:43.640Z,-2.50
2022-12-18T16:32:13.729Z,-2.60
2022-12-18T16:34:40.965Z,-2.50
2022-12-18T16:37:08.953Z,-2.60
2022-12-18T16:39:36.299Z,-2.60
2022-12-18T16:42:17.179Z,-2.60
2022-12-18T16:44:44.369Z,-2.60
2022-12-18T16:47:14.986Z,-2.60
2022-12-18T16:49:42.741Z,-2.60
2022-12-18T16:52:09.853Z,-2.60
2022-12-18T16:54:37.163Z,-2.60
2022-12-18T16:57:05.216Z,-2.60
2022-12-18T16:59:32.155Z,-2.60
2022-12-18T17:01:59.155Z,-2.60
2022-12-18T17:04:26.016Z,-2.70
2022-12-18T17:06:53.837Z,-2.70
2022-12-18T17:09:27.566Z,-2.70
2022-12-18T17:11:54.654Z,-2.70
2022-12-18T17:14:24.337Z,-2.70
2022-12-18T17:17:19.316Z,-2.80
2022-12-18T17:19:38.833Z,-2.70
2022-12-18T17:22:08.300Z,-2.70
2022-12-18T17:24:35.775Z,-2.70
2022-12-18T17:27:03.532Z,-2.70
2022-12-18T17:29:30.875Z,-2.70
2022-12-18T17:31:57.725Z,-2.70
2022-12-18T17:34:27.437Z,-2.70
2022-12-18T17:36:54.331Z,-2.70
2022-12-18T17:39:21.419Z,-2.70
2022-12-18T17:41:50.680Z,-2.70
2022-12-18T17:44:18.015Z,-2.70
2022-12-18T17:46:45.101Z,-2.70
2022-12-18T17:49:12.196Z,-2.70
2022-12-18T17:51:39.224Z,-2.70
2022-12-18T17:54:06.339Z,-2.70
2022-12-18T17:56:33.239Z,-2.70
2022-12-18T17:59:00.173Z,-2.80
2022-12-18T18:01:29.425Z,-2.70
2022-12-18T18:04:00.283Z,-2.70
2022-12-18T18:06:28.438Z,-2.80
2022-12-18T18:08:57.518Z,-2.80
2022-12-18T18:11:43.224Z,-2.80
2022-12-18T18:14:14.637Z,-2.80
2022-12-18T18:16:43.046Z,-2.80
2022-12-18T18:19:13.422Z,-2.80
2022-12-18T18:21:43.839Z,-2.80
2022-12-18T18:24:11.743Z,-2.80
2022-12-18T18:26:44.045Z,-2.80
2022-12-18T18:29:15.557Z,-2.80
2022-12-18T18:31:42.662Z,-2.90
2022-12-18T18:34:16.812Z,-2.90
2022-12-18T18:36:43.751Z,-2.90
2022-12-18T18:39:10.547Z,-2.90
2022-12-18T18:41:37.304Z,-2.80
2022-12-18T18:44:04.399Z,-2.80
2022-12-18T18:46:31.230Z,-2.80
2022-12-18T18:48:58.931Z,-2.90
2022-12-18T18:51:33.162Z,-2.80
2022-12-18T18:54:01.727Z,-2.80
2022-12-18T18:59:17.189Z,-2.90
2022-12-18T19:01:46.654Z,-2.90
2022-12-18T19:04:13.713Z,-2.90
2022-12-18T19:06:40.591Z,-2.90
2022-12-18T19:09:09.688Z,-2.90
2022-12-18T19:11:55.468Z,-2.90
2022-12-18T19:14:22.337Z,-2.90
2022-12-18T19:16:49.149Z,-2.90
2022-12-18T19:19:23.015Z,-2.90
2022-12-18T19:21:52.621Z,-2.90
2022-12-18T19:24:21.411Z,-2.90
2022-12-18T19:26:49.360Z,-2.90
2022-12-18T19:29:16.286Z,-2.90
2022-12-18T19:31:43.180Z,-2.90
2022-12-18T19:34:10.184Z,-2.90
2022-12-18T19:36:37.884Z,-3.00
2022-12-18T19:39:12.068Z,-2.90
2022-12-18T19:41:39.348Z,-3.00
2022-12-18T19:44:08.198Z,-3.00
2022-12-18T19:46:41.608Z,-3.00
2022-12-18T19:49:16.272Z,-3.00
2022-12-18T19:51:45.389Z,-3.10
2022-12-18T19:54:16.654Z,-3.10
2022-12-18T19:56:44.179Z,-3.10
2022-12-18T19:59:10.925Z,-3.10
2022-12-18T20:01:38.077Z,-3.10
2022-12-18T20:04:07.658Z,-3.10
2022-12-18T20:06:49.034Z,-3.10
2022-12-18T20:09:16.414Z,-3.10
2022-12-18T20:11:45.725Z,-3.10
2022-12-18T20:14:13.381Z,-3.10
2022-12-18T20:16:40.603Z,-3.10
2022-12-18T20:19:07.695Z,-3.10
2022-12-18T20:21:34.676Z,-3.10
2022-12-18T20:24:02.068Z,-3.10
2022-12-18T20:26:28.984Z,-3.00
2022-12-18T20:28:55.874Z,-3.00
2022-12-18T20:31:22.810Z,-3.00
2022-12-18T20:33:49.987Z,-3.10
2022-12-18T20:36:21.395Z,-3.10
2022-12-18T20:38:51.813Z,-3.10
2022-12-18T20:41:22.462Z,-3.10
2022-12-18T20:43:51.649Z,-3.20
2022-12-18T20:46:20.978Z,-3.10
2022-12-18T20:48:48.236Z,-3.10
2022-12-18T20:51:16.797Z,-3.10
2022-12-18T20:53:43.908Z,-3.10
2022-12-18T20:56:17.760Z,-3.10
2022-12-18T20:58:48.988Z,-3.10
2022-12-18T21:01:20.175Z,-3.10
2022-12-18T21:03:47.480Z,-3.10
2022-12-18T21:06:15.387Z,-3.10
2022-12-18T21:08:42.195Z,-3.20
2022-12-18T21:11:35.120Z,-3.20
2022-12-18T21:14:03.079Z,-3.20
2022-12-18T21:16:29.846Z,-3.20
2022-12-18T21:18:56.658Z,-3.20
2022-12-18T21:21:26.932Z,-3.20
2022-12-18T21:23:56.573Z,-3.20
2022-12-18T21:26:24.411Z,-3.20
2022-12-18T21:28:55.460Z,-3.10
2022-12-18T21:31:23.535Z,-3.10
2022-12-18T21:33:50.561Z,-3.10
2022-12-18T21:36:19.848Z,-3.10
2022-12-18T21:38:46.528Z,-3.10
2022-12-18T21:41:40.254Z,-3.10
2022-12-18T21:44:10.805Z,-3.20
2022-12-18T21:46:42.227Z,-3.20
2022-12-18T21:49:09.223Z,-3.20
2022-12-18T21:51:36.152Z,-3.20
2022-12-18T21:54:03.332Z,-3.10
2022-12-18T21:56:49.998Z,-3.10
2022-12-18T21:59:18.114Z,-3.10
2022-12-18T22:01:45.455Z,-3.10
2022-12-18T22:04:12.783Z,-3.10
2022-12-18T22:06:40.682Z,-3.10
2022-12-18T22:09:07.557Z,-3.10
2022-12-18T22:11:34.402Z,-3.10
2022-12-18T22:14:01.284Z,-3.10
2022-12-18T22:16:28.154Z,-3.10
2022-12-18T22:18:55.267Z,-3.10
2022-12-18T22:21:28.714Z,-3.10
2022-12-18T22:23:57.171Z,-3.10
2022-12-18T22:26:24.602Z,-3.10
2022-12-18T22:29:10.173Z,-3.10
2022-12-18T22:31:37.452Z,-3.10
2022-12-18T22:34:04.494Z,-3.10
2022-12-18T22:36:42.488Z,-3.00
2022-12-18T22:39:19.764Z,-3.10
2022-12-18T22:41:46.941Z,-3.10
2022-12-18T22:44:15.216Z,-3.10
2022-12-18T22:46:46.655Z,-3.10
2022-12-18T22:49:17.909Z,-3.00
2022-12-18T22:51:44.722Z,-3.10
2022-12-18T22:54:11.526Z,-3.10
2022-12-18T22:56:38.718Z,-3.10
2022-12-18T22:59:09.070Z,-3.10
2022-12-18T23:01:35.962Z,-3.10
2022-12-18T23:04:05.158Z,-3.10
2022-12-18T23:06:31.883Z,-3.20
2022-12-18T23:08:58.635Z,-3.20
2022-12-18T23:11:26.270Z,-3.20
2022-12-18T23:13:53.245Z,-3.10
2022-12-18T23:16:23.616Z,-3.10
2022-12-18T23:18:56.836Z,-3.20
2022-12-18T23:21:26.965Z,-3.20
2022-12-18T23:23:54.299Z,-3.10
2022-12-18T23:26:22.381Z,-3.20
2022-12-18T23:28:50.373Z,-3.20
2022-12-18T23:31:17.149Z,-3.10
2022-12-18T23:33:44.788Z,-3.10
2022-12-18T23:36:12.402Z,-3.10
2022-12-18T23:38:39.628Z,-3.10
2022-12-18T23:41:14.062Z,-3.10
2022-12-18T23:43:41.059Z,-3.10
2022-12-18T23:46:10.229Z,-3.10
2022-12-18T23:48:37.027Z,-3.10
2022-12-18T23:51:07.868Z,-3.00
2022-12-18T23:53:34.682Z,-3.10
2022-12-18T23:56:01.891Z,-3.10
2022-12-18T23:58:32.600Z,-3.10
